Time;durP1;ratioP1;P1;durP2;ratioP2;P2;SDS_P1;SDS_P2;PMS_P1;PMS_P2;Temp;Humidity;BMP_temperature;BMP_pressure;BME280_temperature;BME280_humidity;BME280_pressure;Samples;Min_cycle;Max_cycle;Signal;HPM_P1;HPM_P2
2021/10/20 00:01:51;;;;;;;28.93;26.20;;;11.10;99.90;;;;;;5053590;28;20452;-79
2021/10/20 00:04:19;;;;;;;27.97;25.30;;;11.10;99.90;;;;;;5053668;28;20476;-78
2021/10/20 00:06:46;;;;;;;26.97;24.70;;;11.10;99.90;;;;;;5054102;28;20514;-80
2021/10/20 00:09:12;;;;;;;26.27;23.70;;;11.10;99.90;;;;;;5054439;28;21062;-81
2021/10/20 00:11:39;;;;;;;25.70;23.70;;;11.10;99.90;;;;;;5053071;28;20812;-81
2021/10/20 00:14:06;;;;;;;28.17;25.50;;;11.10;99.90;;;;;;5057215;28;20479;-79
2021/10/20 00:16:33;;;;;;;29.90;26.93;;;11.00;99.90;;;;;;5056792;28;20456;-78
2021/10/20 00:19:01;;;;;;;28.40;26.27;;;11.00;99.90;;;;;;5056031;28;20464;-81
2021/10/20 00:21:29;;;;;;;24.63;22.83;;;10.90;99.90;;;;;;5051795;28;20528;-74
2021/10/20 00:23:56;;;;;;;25.27;23.00;;;10.90;99.90;;;;;;5052852;28;20866;-76
2021/10/20 00:26:23;;;;;;;29.10;26.30;;;10.90;99.90;;;;;;5052933;28;20453;-76
2021/10/20 00:28:50;;;;;;;28.03;25.47;;;10.90;99.90;;;;;;5052722;28;20505;-76
2021/10/20 00:31:17;;;;;;;26.67;24.53;;;10.80;99.90;;;;;;5052641;28;20452;-79
2021/10/20 00:33:43;;;;;;;26.23;24.00;;;10.80;99.90;;;;;;5052515;28;20953;-79
2021/10/20 00:36:12;;;;;;;28.33;25.83;;;10.70;99.90;;;;;;5052321;28;20451;-79
2021/10/20 00:38:38;;;;;;;25.77;23.67;;;10.80;99.90;;;;;;5052767;28;20447;-79
2021/10/20 00:41:05;;;;;;;25.17;22.73;;;10.70;99.90;;;;;;5052625;28;20470;-79
2021/10/20 00:43:32;;;;;;;24.90;23.03;;;10.70;99.90;;;;;;5052299;28;20448;-79
2021/10/20 00:45:59;;;;;;;25.33;23.53;;;10.70;99.90;;;;;;5052454;28;20459;-80
2021/10/20 00:48:26;;;;;;;24.77;22.67;;;10.80;99.90;;;;;;5052228;28;20488;-80
2021/10/20 00:50:52;;;;;;;26.97;24.97;;;10.70;99.90;;;;;;5052623;28;20456;-79
2021/10/20 00:53:21;;;;;;;26.70;24.47;;;10.70;99.90;;;;;;5052310;28;20970;-79
2021/10/20 00:55:48;;;;;;;24.30;22.40;;;10.70;99.90;;;;;;5052299;28;20455;-78
2021/10/20 00:58:15;;;;;;;27.63;25.33;;;10.70;99.90;;;;;;5052251;28;20452;-78
2021/10/20 01:00:42;;;;;;;28.73;26.20;;;10.60;99.90;;;;;;5052115;28;20739;-78
2021/10/20 01:03:08;;;;;;;27.33;25.30;;;10.50;99.90;;;;;;5052138;28;20464;-78
2021/10/20 01:05:35;;;;;;;26.97;24.67;;;10.50;99.90;;;;;;5052445;28;20451;-79
2021/10/20 01:08:02;;;;;;;27.20;24.70;;;10.50;99.90;;;;;;5051962;28;20491;-79
2021/10/20 01:10:30;;;;;;;28.63;26.00;;;10.50;99.90;;;;;;5052059;28;20470;-77
2021/10/20 01:12:57;;;;;;;27.47;24.70;;;10.50;99.90;;;;;;5052212;28;20483;-77
2021/10/20 01:15:25;;;;;;;29.23;26.47;;;10.50;99.90;;;;;;5051726;28;20473;-78
2021/10/20 01:17:53;;;;;;;23.67;21.77;;;10.40;99.90;;;;;;5051847;28;20451;-77
2021/10/20 01:20:22;;;;;;;25.50;23.50;;;10.50;99.90;;;;;;5051836;28;20472;-77
2021/10/20 01:22:50;;;;;;;27.67;25.43;;;10.50;99.90;;;;;;5051889;28;20459;-78
2021/10/20 01:25:17;;;;;;;24.67;22.87;;;10.50;99.90;;;;;;5051640;28;20459;-79
2021/10/20 01:27:44;;;;;;;23.30;21.70;;;10.40;99.90;;;;;;5051083;28;20474;-78
2021/10/20 01:30:12;;;;;;;24.57;22.60;;;10.40;99.90;;;;;;5051490;28;20457;-79
2021/10/20 01:32:38;;;;;;;24.23;22.33;;;10.40;99.90;;;;;;5051677;28;20926;-79
2021/10/20 01:35:06;;;;;;;24.37;22.73;;;10.30;99.90;;;;;;5052189;28;20781;-80
2021/10/20 01:37:33;;;;;;;25.87;23.77;;;10.30;99.90;;;;;;5051754;28;20467;-81
2021/10/20 01:40:01;;;;;;;24.77;22.87;;;10.30;99.90;;;;;;5051233;28;20459;-81
2021/10/20 01:42:29;;;;;;;25.73;23.63;;;10.30;99.90;;;;;;5051394;28;20482;-81
2021/10/20 01:44:57;;;;;;;27.90;25.43;;;10.30;99.90;;;;;;5051466;28;20475;-81
2021/10/20 01:47:24;;;;;;;24.70;22.70;;;10.30;99.90;;;;;;5051596;28;20803;-81
2021/10/20 01:49:51;;;;;;;26.37;24.07;;;10.20;99.90;;;;;;5051306;28;21010;-79
2021/10/20 01:52:18;;;;;;;25.53;23.50;;;10.20;99.90;;;;;;5051184;28;20459;-79
2021/10/20 01:54:44;;;;;;;24.67;22.63;;;10.10;99.90;;;;;;5051060;28;20546;-80
2021/10/20 01:57:12;;;;;;;24.07;22.27;;;10.10;99.90;;;;;;5051130;28;20471;-79
2021/10/20 01:59:39;;;;;;;22.97;21.37;;;10.10;99.90;;;;;;5051080;28;20455;-78
2021/10/20 02:02:16;;;;;;;23.50;21.50;;;10.10;99.90;;;;;;5051467;28;20552;-78
2021/10/20 02:04:43;;;;;;;23.20;21.50;;;10.10;99.90;;;;;;5050984;28;20437;-80
2021/10/20 02:07:09;;;;;;;23.33;21.63;;;10.10;99.90;;;;;;5050776;28;20802;-78
2021/10/20 02:09:36;;;;;;;23.50;21.53;;;10.20;99.90;;;;;;5050917;28;20495;-78
2021/10/20 02:12:03;;;;;;;22.33;20.43;;;10.20;99.90;;;;;;5050900;28;20491;-79
2021/10/20 02:14:31;;;;;;;23.87;22.03;;;10.20;99.90;;;;;;5050354;28;20547;-78
2021/10/20 02:16:58;;;;;;;24.13;22.03;;;10.20;99.90;;;;;;5050749;28;20448;-78
2021/10/20 02:19:27;;;;;;;25.97;23.60;;;10.10;99.90;;;;;;5050779;28;20519;-77
2021/10/20 02:21:54;;;;;;;23.87;21.97;;;10.10;99.90;;;;;;5050609;28;20448;-77
2021/10/20 02:24:21;;;;;;;25.57;23.40;;;10.10;99.90;;;;;;5050694;28;20461;-77
2021/10/20 02:26:47;;;;;;;26.40;24.30;;;10.10;99.90;;;;;;5050124;28;20502;-77
2021/10/20 02:29:14;;;;;;;27.80;25.27;;;10.20;99.90;;;;;;5050415;28;20487;-79
2021/10/20 02:31:46;;;;;;;25.83;23.53;;;10.20;99.90;;;;;;5050341;28;20962;-79
2021/10/20 02:34:13;;;;;;;26.33;23.53;;;10.20;99.90;;;;;;5050575;28;20462;-78
2021/10/20 02:36:40;;;;;;;28.37;25.50;;;10.20;99.90;;;;;;5050610;28;20871;-78
2021/10/20 02:39:07;;;;;;;24.97;22.83;;;10.20;99.90;;;;;;5050623;28;20851;-79
2021/10/20 02:41:33;;;;;;;26.03;23.73;;;10.10;99.90;;;;;;5050348;28;20455;-78
2021/10/20 02:44:00;;;;;;;26.83;24.13;;;10.10;99.90;;;;;;5050118;28;20502;-78
2021/10/20 02:46:27;;;;;;;25.87;24.17;;;10.10;99.90;;;;;;5050516;28;20958;-77
2021/10/20 02:48:55;;;;;;;27.57;24.87;;;10.10;99.90;;;;;;5050345;28;20517;-77
2021/10/20 02:51:22;;;;;;;28.03;25.73;;;10.00;99.90;;;;;;5050357;28;20453;-78
2021/10/20 02:53:49;;;;;;;29.10;26.33;;;10.00;99.90;;;;;;5050532;28;20540;-78
2021/10/20 02:56:17;;;;;;;28.03;25.27;;;10.00;99.90;;;;;;5049983;28;20455;-79
2021/10/20 02:58:44;;;;;;;28.20;25.93;;;10.00;99.90;;;;;;5050623;28;20452;-78
2021/10/20 03:01:11;;;;;;;27.60;25.20;;;10.00;99.90;;;;;;5050471;28;20448;-78
2021/10/20 03:03:38;;;;;;;26.73;24.07;;;10.00;99.90;;;;;;5050453;28;20448;-77
2021/10/20 03:06:06;;;;;;;23.90;21.80;;;10.00;99.90;;;;;;5050674;28;20456;-81
2021/10/20 03:08:33;;;;;;;25.53;23.00;;;9.90;99.90;;;;;;5050279;28;21005;-81
2021/10/20 03:11:00;;;;;;;25.17;22.97;;;9.90;99.90;;;;;;5050363;28;20453;-80
2021/10/20 03:13:27;;;;;;;23.43;21.63;;;9.90;99.90;;;;;;5050342;28;20475;-78
2021/10/20 03:15:53;;;;;;;26.63;24.20;;;9.80;99.90;;;;;;5049924;28;20460;-78
2021/10/20 03:18:20;;;;;;;26.10;24.00;;;9.80;99.90;;;;;;5050282;28;20956;-79
2021/10/20 03:20:47;;;;;;;26.43;23.80;;;9.80;99.90;;;;;;5050165;28;20479;-80
2021/10/20 03:23:15;;;;;;;27.13;24.80;;;9.80;99.90;;;;;;5050007;28;20833;-78
2021/10/20 03:25:42;;;;;;;24.90;22.80;;;9.80;99.90;;;;;;5050075;28;20836;-79
2021/10/20 03:28:08;;;;;;;27.23;24.33;;;9.80;99.90;;;;;;5049358;28;20483;-79
2021/10/20 03:30:35;;;;;;;25.87;23.80;;;9.90;99.90;;;;;;5050326;28;20857;-81
2021/10/20 03:33:02;;;;;;;25.37;23.20;;;9.80;99.90;;;;;;5050193;28;20457;-81
2021/10/20 03:35:29;;;;;;;26.53;23.97;;;9.80;99.90;;;;;;5050139;28;20435;-80
2021/10/20 03:37:55;;;;;;;23.93;21.83;;;9.80;99.90;;;;;;5049894;28;20444;-77
2021/10/20 03:40:24;;;;;;;25.33;23.10;;;9.80;99.90;;;;;;5049566;28;20451;-77
2021/10/20 03:42:50;;;;;;;27.57;25.23;;;9.90;99.90;;;;;;5050143;28;20456;-78
2021/10/20 03:45:17;;;;;;;27.90;25.50;;;9.80;99.90;;;;;;5050101;28;20453;-77
2021/10/20 03:47:44;;;;;;;25.63;23.23;;;9.80;99.90;;;;;;5050007;28;20809;-78
2021/10/20 03:50:11;;;;;;;24.53;21.93;;;9.80;99.90;;;;;;5049703;28;20846;-79
2021/10/20 03:52:38;;;;;;;25.67;23.50;;;9.80;99.90;;;;;;5049644;28;20980;-79
2021/10/20 03:55:06;;;;;;;26.33;23.63;;;9.80;99.90;;;;;;5049759;28;20458;-80
2021/10/20 03:57:38;;;;;;;26.67;24.43;;;9.90;99.90;;;;;;5052235;28;20452;-79
2021/10/20 04:00:07;;;;;;;25.67;23.20;;;9.90;99.90;;;;;;5053393;28;20445;-81
2021/10/20 04:02:34;;;;;;;25.80;22.17;;;9.90;99.90;;;;;;5053306;28;20508;-82
2021/10/20 04:05:00;;;;;;;21.00;19.40;;;9.90;99.90;;;;;;5052996;28;20455;-81
2021/10/20 04:07:27;;;;;;;22.47;20.77;;;9.90;99.90;;;;;;5053228;28;20450;-80
2021/10/20 04:09:54;;;;;;;23.97;21.73;;;9.80;99.90;;;;;;5052972;28;20686;-81
2021/10/20 04:12:21;;;;;;;22.90;21.10;;;9.80;99.90;;;;;;5053176;28;20946;-81
2021/10/20 04:14:49;;;;;;;22.87;21.17;;;9.80;99.90;;;;;;5052707;28;20462;-81
2021/10/20 04:17:15;;;;;;;22.10;20.10;;;9.90;99.90;;;;;;5052951;28;20804;-82
2021/10/20 04:19:42;;;;;;;22.00;20.37;;;9.90;99.90;;;;;;5053157;28;20446;-80
2021/10/20 04:22:09;;;;;;;22.73;20.40;;;9.90;99.90;;;;;;5052919;28;20837;-81
2021/10/20 04:24:35;;;;;;;24.90;23.00;;;9.90;99.90;;;;;;5052858;28;20455;-81
2021/10/20 04:27:02;;;;;;;21.50;19.67;;;9.80;99.90;;;;;;5052800;28;20472;-81
2021/10/20 04:29:29;;;;;;;19.87;18.40;;;9.80;99.90;;;;;;5052914;28;20488;-81
2021/10/20 04:31:57;;;;;;;21.77;19.70;;;9.70;99.90;;;;;;5053042;28;20457;-80
2021/10/20 04:34:24;;;;;;;20.97;19.47;;;9.60;99.90;;;;;;5053171;28;20448;-83
2021/10/20 04:36:50;;;;;;;21.90;20.40;;;9.50;99.90;;;;;;5053276;28;20444;-83
2021/10/20 04:39:17;;;;;;;23.63;20.87;;;9.50;99.90;;;;;;5053557;28;20946;-82
2021/10/20 04:41:44;;;;;;;24.20;22.20;;;9.40;99.90;;;;;;5053956;28;20473;-81
2021/10/20 04:44:11;;;;;;;25.27;23.00;;;9.30;99.90;;;;;;5055178;28;20448;-79
2021/10/20 04:46:38;;;;;;;24.40;22.23;;;9.30;99.90;;;;;;5057951;28;20482;-80
2021/10/20 04:49:06;;;;;;;22.83;21.30;;;9.30;99.90;;;;;;5058586;28;20496;-80
2021/10/20 04:51:32;;;;;;;24.10;22.10;;;9.20;99.90;;;;;;5055386;28;20454;-81
2021/10/20 04:53:59;;;;;;;23.23;20.80;;;9.20;99.90;;;;;;5052234;28;20452;-81
2021/10/20 04:56:26;;;;;;;25.47;23.27;;;9.10;99.90;;;;;;5052594;28;20447;-77
2021/10/20 04:58:52;;;;;;;26.03;23.70;;;9.10;99.90;;;;;;5052620;28;20449;-77
2021/10/20 05:01:19;;;;;;;23.27;21.40;;;9.10;99.90;;;;;;5052635;28;20456;-80
2021/10/20 05:03:46;;;;;;;24.90;22.67;;;9.10;99.90;;;;;;5052290;28;20817;-82
2021/10/20 05:06:14;;;;;;;26.27;23.90;;;9.00;99.90;;;;;;5052310;28;20686;-79
2021/10/20 05:08:41;;;;;;;25.60;23.20;;;9.00;99.90;;;;;;5051928;28;20966;-83
2021/10/20 05:11:07;;;;;;;24.33;22.33;;;9.10;99.90;;;;;;5052386;28;20455;-81
2021/10/20 05:13:34;;;;;;;26.73;24.23;;;9.10;99.90;;;;;;5052256;28;20459;-80
2021/10/20 05:16:01;;;;;;;26.93;24.87;;;9.00;99.90;;;;;;5051697;28;20969;-79
2021/10/20 05:18:27;;;;;;;26.83;24.23;;;9.00;99.90;;;;;;5052023;28;20448;-80
2021/10/20 05:20:54;;;;;;;26.83;24.40;;;9.00;99.90;;;;;;5051645;28;20464;-79
2021/10/20 05:23:22;;;;;;;30.17;24.40;;;9.00;99.90;;;;;;5051882;28;20448;-80
2021/10/20 05:25:49;;;;;;;27.43;25.07;;;9.00;99.90;;;;;;5051346;28;20934;-79
2021/10/20 05:28:15;;;;;;;24.53;22.47;;;9.00;99.90;;;;;;5052421;28;20476;-79
2021/10/20 05:30:42;;;;;;;25.87;23.60;;;8.90;99.90;;;;;;5051796;28;20494;-79
2021/10/20 05:33:09;;;;;;;26.60;24.27;;;8.90;99.90;;;;;;5051509;28;20485;-79
2021/10/20 05:35:35;;;;;;;26.83;24.20;;;8.90;99.90;;;;;;5051708;28;21336;-79
2021/10/20 05:38:02;;;;;;;25.20;22.97;;;8.90;99.90;;;;;;5051980;28;20452;-78
2021/10/20 05:40:30;;;;;;;27.73;25.47;;;8.90;99.90;;;;;;5050947;28;20444;-78
2021/10/20 05:42:57;;;;;;;27.00;24.77;;;8.90;99.90;;;;;;5051210;28;20909;-80
2021/10/20 05:45:24;;;;;;;25.80;23.87;;;8.80;99.90;;;;;;5051258;28;20922;-79
2021/10/20 05:47:50;;;;;;;27.80;25.10;;;8.80;99.90;;;;;;5051211;28;20448;-80
2021/10/20 05:50:17;;;;;;;24.83;22.70;;;8.80;99.90;;;;;;5050797;28;20999;-80
2021/10/20 05:52:44;;;;;;;27.47;24.90;;;8.70;99.90;;;;;;5051102;28;20448;-78
2021/10/20 05:55:12;;;;;;;27.17;24.27;;;8.70;99.90;;;;;;5050860;28;20463;-77
2021/10/20 05:57:40;;;;;;;28.00;25.00;;;8.70;99.90;;;;;;5051340;28;20460;-77
2021/10/20 06:00:09;;;;;;;29.03;26.00;;;8.80;99.90;;;;;;5051227;28;20440;-76
2021/10/20 06:02:36;;;;;;;28.40;25.70;;;8.80;99.90;;;;;;5051252;28;20455;-78
2021/10/20 06:05:03;;;;;;;28.90;26.37;;;8.90;99.90;;;;;;5050846;28;20459;-79
2021/10/20 06:07:30;;;;;;;26.50;24.43;;;8.90;99.90;;;;;;5050977;28;20459;-79
2021/10/20 06:09:57;;;;;;;24.47;22.27;;;8.90;99.90;;;;;;5050830;28;20486;-80
2021/10/20 06:12:24;;;;;;;28.40;25.43;;;9.00;99.90;;;;;;5051008;28;20452;-79
2021/10/20 06:14:52;;;;;;;27.50;25.27;;;9.00;99.90;;;;;;5051247;28;20448;-79
2021/10/20 06:17:19;;;;;;;26.73;24.60;;;9.00;99.90;;;;;;5051092;28;20448;-79
2021/10/20 06:19:46;;;;;;;26.20;23.80;;;9.00;99.90;;;;;;5050029;28;20485;-78
2021/10/20 06:22:13;;;;;;;26.20;23.93;;;9.00;99.90;;;;;;5050736;28;20513;-79
2021/10/20 06:24:40;;;;;;;23.97;21.73;;;9.00;99.90;;;;;;5050690;28;20452;-79
2021/10/20 06:27:07;;;;;;;26.07;23.40;;;9.00;99.90;;;;;;5050829;28;20838;-79
2021/10/20 06:29:33;;;;;;;25.30;23.20;;;9.10;99.90;;;;;;5050616;28;20487;-80
2021/10/20 06:32:01;;;;;;;23.93;22.03;;;9.20;99.90;;;;;;5050771;28;20824;-80
2021/10/20 06:34:28;;;;;;;24.83;22.73;;;9.50;99.90;;;;;;5049923;28;20459;-80
2021/10/20 06:36:55;;;;;;;27.13;24.40;;;9.80;99.90;;;;;;5050327;28;20447;-81
2021/10/20 06:39:24;;;;;;;23.50;20.97;;;10.10;99.90;;;;;;5050256;28;20444;-81
2021/10/20 06:41:51;;;;;;;22.30;20.40;;;10.40;99.90;;;;;;5050774;28;20914;-81
2021/10/20 06:44:18;;;;;;;23.47;21.43;;;10.70;99.90;;;;;;5050832;28;20440;-82
2021/10/20 06:46:45;;;;;;;21.40;19.53;;;11.00;99.90;;;;;;5050687;28;20458;-81
2021/10/20 06:49:13;;;;;;;22.00;19.70;;;11.20;99.90;;;;;;5050319;28;21014;-80
2021/10/20 06:51:40;;;;;;;22.77;20.63;;;11.40;99.90;;;;;;5050480;28;20452;-86
2021/10/20 06:54:07;;;;;;;20.93;18.93;;;11.50;99.90;;;;;;5050166;28;20456;-85
2021/10/20 06:56:33;;;;;;;22.13;20.13;;;11.50;99.90;;;;;;5052383;28;20447;-84
2021/10/20 06:59:00;;;;;;;23.20;21.17;;;11.20;99.90;;;;;;5050406;28;20455;-80
2021/10/20 07:01:27;;;;;;;24.67;22.40;;;10.90;99.90;;;;;;5050057;28;20447;-80
2021/10/20 07:03:54;;;;;;;22.00;20.07;;;10.80;99.90;;;;;;5050998;28;20486;-80
2021/10/20 07:06:26;;;;;;;23.03;20.50;;;10.80;99.90;;;;;;5050564;28;20464;-81
2021/10/20 07:08:53;;;;;;;22.97;20.73;;;11.30;99.90;;;;;;5051145;28;20451;-83
2021/10/20 07:11:20;;;;;;;21.47;19.73;;;11.90;99.90;;;;;;5046947;28;20506;-85
2021/10/20 07:13:46;;;;;;;21.33;19.43;;;12.20;99.90;;;;;;5050324;28;20440;-84
2021/10/20 07:16:13;;;;;;;21.03;19.23;;;12.30;99.90;;;;;;5050266;28;20444;-85
2021/10/20 07:18:40;;;;;;;21.77;19.60;;;12.50;99.90;;;;;;5050890;28;20447;-87
2021/10/20 07:21:06;;;;;;;20.70;18.93;;;12.60;99.90;;;;;;5052642;28;20464;-85
2021/10/20 07:23:35;;;;;;;22.97;20.47;;;12.60;99.90;;;;;;5050991;28;20542;-85
2021/10/20 07:26:01;;;;;;;22.50;20.90;;;12.60;99.90;;;;;;5048526;28;20506;-87
2021/10/20 07:28:28;;;;;;;23.33;20.93;;;12.80;99.90;;;;;;5050150;28;20483;-86
2021/10/20 07:30:55;;;;;;;20.73;18.73;;;12.70;99.90;;;;;;5052068;28;20487;-86
2021/10/20 07:33:21;;;;;;;26.10;23.80;;;13.10;99.90;;;;;;5054198;28;20459;-87
2021/10/20 07:35:48;;;;;;;21.27;19.40;;;13.40;99.90;;;;;;5054213;28;20458;-84
2021/10/20 07:38:15;;;;;;;20.70;19.10;;;13.70;99.90;;;;;;5054581;28;20459;-79
2021/10/20 07:40:43;;;;;;;21.70;19.80;;;13.50;99.90;;;;;;5054006;28;20452;-84
2021/10/20 07:43:10;;;;;;;31.93;28.70;;;13.50;99.90;;;;;;5054065;28;20819;-85
2021/10/20 07:45:37;;;;;;;26.83;24.27;;;13.50;99.90;;;;;;5054117;28;20456;-84
2021/10/20 07:48:05;;;;;;;26.67;23.87;;;13.60;99.90;;;;;;5054135;28;20868;-86
2021/10/20 07:50:33;;;;;;;21.77;19.87;;;13.80;99.90;;;;;;5054473;28;20522;-86
2021/10/20 07:53:00;;;;;;;23.40;21.17;;;14.20;99.90;;;;;;5054295;28;20817;-89
2021/10/20 07:55:27;;;;;;;24.63;22.40;;;14.80;99.90;;;;;;5054049;28;20817;-87
2021/10/20 07:57:56;;;;;;;23.20;20.90;;;15.20;99.90;;;;;;5054002;28;20795;-85
2021/10/20 08:00:23;;;;;;;27.77;22.10;;;15.40;99.90;;;;;;5056799;28;20448;-88
2021/10/20 08:02:50;;;;;;;19.40;17.57;;;15.20;99.90;;;;;;5054228;28;20482;-90
2021/10/20 08:05:17;;;;;;;20.50;18.50;;;15.40;99.90;;;;;;5056527;28;20458;-82
2021/10/20 08:07:45;;;;;;;20.20;18.70;;;15.50;99.90;;;;;;5050844;28;20444;-85
2021/10/20 08:10:13;;;;;;;20.17;18.37;;;15.90;99.90;;;;;;5050667;28;20748;-84
2021/10/20 08:12:39;;;;;;;21.80;19.90;;;16.00;99.90;;;;;;5053139;28;20827;-86
2021/10/20 08:15:09;;;;;;;20.67;18.63;;;16.30;99.90;;;;;;5053460;28;20467;-83
2021/10/20 08:17:36;;;;;;;20.17;18.47;;;16.90;99.90;;;;;;5053391;28;20460;-84
2021/10/20 08:20:05;;;;;;;19.37;17.80;;;17.10;99.90;;;;;;5053401;28;20482;-85
2021/10/20 08:22:32;;;;;;;18.07;16.67;;;17.40;99.90;;;;;;5053297;28;20455;-86
2021/10/20 08:24:58;;;;;;;19.67;18.17;;;17.70;99.90;;;;;;5053180;28;20449;-83
2021/10/20 08:27:25;;;;;;;16.80;15.70;;;17.90;99.90;;;;;;5052355;28;20561;-87
2021/10/20 08:29:52;;;;;;;18.57;17.40;;;18.00;99.90;;;;;;5053430;28;20460;-85
2021/10/20 08:32:20;;;;;;;16.87;15.67;;;18.40;99.90;;;;;;5053374;28;20451;-86
2021/10/20 08:34:48;;;;;;;15.37;14.53;;;19.20;99.90;;;;;;5052976;28;20812;-85
2021/10/20 08:37:15;;;;;;;18.80;16.80;;;19.20;99.20;;;;;;5052947;28;20448;-84
2021/10/20 08:39:42;;;;;;;18.70;17.20;;;19.30;99.90;;;;;;5052874;28;20674;-85
2021/10/20 08:42:09;;;;;;;17.10;15.97;;;19.50;99.20;;;;;;5052213;28;20470;-86
2021/10/20 08:44:36;;;;;;;16.23;15.13;;;19.30;99.40;;;;;;5053398;28;20448;-85
2021/10/20 08:47:04;;;;;;;18.43;16.80;;;18.90;99.50;;;;;;5052932;28;20455;-85
2021/10/20 08:49:33;;;;;;;20.60;18.70;;;18.80;99.90;;;;;;5052808;28;20451;-84
2021/10/20 08:52:01;;;;;;;20.43;18.20;;;18.90;99.90;;;;;;5052903;28;20487;-89
2021/10/20 08:54:29;;;;;;;17.63;16.13;;;18.90;99.90;;;;;;5053526;28;20455;-86
2021/10/20 08:56:56;;;;;;;18.00;16.60;;;18.70;99.90;;;;;;5052468;28;20451;-87
2021/10/20 08:59:23;;;;;;;17.83;16.33;;;18.90;99.90;;;;;;5052879;28;20446;-85
2021/10/20 09:01:50;;;;;;;17.80;16.60;;;18.70;99.90;;;;;;5052883;28;20459;-86
2021/10/20 09:04:19;;;;;;;18.27;17.00;;;18.80;99.90;;;;;;5052812;28;20459;-86
2021/10/20 09:06:48;;;;;;;20.60;18.97;;;18.40;99.90;;;;;;5052578;28;20460;-85
2021/10/20 09:09:17;;;;;;;18.97;17.60;;;18.50;99.90;;;;;;5052225;28;20467;-83
2021/10/20 09:11:44;;;;;;;18.70;17.17;;;19.00;99.90;;;;;;5051872;28;20549;-84
2021/10/20 09:14:12;;;;;;;19.43;17.83;;;19.40;99.90;;;;;;5052081;28;20977;-83
2021/10/20 09:16:41;;;;;;;18.53;17.27;;;19.80;99.90;;;;;;5052241;28;20448;-86
2021/10/20 09:19:13;;;;;;;19.87;18.33;;;20.40;98.60;;;;;;5051971;28;20452;-86
2021/10/20 09:21:50;;;;;;;20.07;18.70;;;20.10;98.90;;;;;;5051632;28;20480;-86
2021/10/20 09:24:16;;;;;;;17.90;16.70;;;20.50;98.40;;;;;;5051924;28;20447;-86
2021/10/20 09:26:43;;;;;;;18.87;17.17;;;20.90;96.50;;;;;;5051771;28;20444;-85
2021/10/20 09:29:20;;;;;;;18.03;16.70;;;20.80;96.40;;;;;;5052196;28;20448;-87
2021/10/20 09:31:47;;;;;;;16.87;15.57;;;20.30;97.10;;;;;;5068515;28;20475;-83
2021/10/20 09:34:13;;;;;;;18.67;17.17;;;20.10;97.10;;;;;;5069901;28;20832;-85
2021/10/20 09:36:40;;;;;;;20.47;18.93;;;19.80;97.70;;;;;;5069446;28;20456;-84
2021/10/20 09:39:10;;;;;;;17.97;16.53;;;19.90;97.70;;;;;;5053300;28;20465;-85
2021/10/20 09:41:36;;;;;;;17.57;15.87;;;20.00;98.00;;;;;;5053196;28;20464;-84
2021/10/20 09:44:07;;;;;;;15.67;14.87;;;20.40;96.80;;;;;;5052508;28;20447;-84
2021/10/20 09:46:34;;;;;;;16.37;15.33;;;20.60;96.50;;;;;;5051723;28;20436;-84
2021/10/20 09:49:03;;;;;;;16.50;15.43;;;20.90;95.90;;;;;;5051837;28;20463;-84
2021/10/20 09:51:38;;;;;;;15.77;14.73;;;21.70;94.80;;;;;;5052137;28;20533;-84
2021/10/20 09:54:25;;;;;;;14.97;13.97;;;21.80;94.10;;;;;;5057823;28;20485;-84
2021/10/20 09:56:56;;;;;;;15.60;14.50;;;21.90;93.20;;;;;;5059248;28;20506;-85
2021/10/20 09:59:23;;;;;;;13.40;12.60;;;21.80;93.00;;;;;;5052662;28;20475;-86
2021/10/20 10:01:50;;;;;;;14.00;12.97;;;21.90;93.00;;;;;;5051593;28;20460;-85
2021/10/20 10:04:17;;;;;;;13.70;12.87;;;22.00;92.20;;;;;;5051009;28;20448;-83
2021/10/20 10:06:44;;;;;;;13.97;13.30;;;23.00;91.20;;;;;;5051139;28;20452;-85
2021/10/20 10:09:12;;;;;;;15.33;14.50;;;23.70;89.10;;;;;;5051750;28;20436;-86
2021/10/20 10:11:44;;;;;;;13.87;13.20;;;24.40;86.70;;;;;;5052731;28;20490;-86
2021/10/20 10:14:15;;;;;;;14.17;13.47;;;24.10;86.00;;;;;;5051016;28;20448;-86
2021/10/20 10:16:43;;;;;;;14.70;14.00;;;24.70;85.80;;;;;;5050820;28;20827;-84
2021/10/20 10:19:12;;;;;;;15.13;14.10;;;25.40;82.40;;;;;;5051067;28;20448;-89
2021/10/20 10:21:42;;;;;;;14.00;13.50;;;24.90;82.20;;;;;;5050865;28;20533;-83
2021/10/20 10:24:13;;;;;;;14.47;13.77;;;24.60;83.50;;;;;;5051258;28;20452;-88
2021/10/20 10:27:00;;;;;;;13.67;13.00;;;24.50;84.30;;;;;;5050663;28;20451;-83
2021/10/20 10:29:28;;;;;;;14.17;13.43;;;25.10;82.50;;;;;;5051567;28;20439;-90
2021/10/20 10:31:54;;;;;;;13.77;13.10;;;25.20;81.60;;;;;;5050658;28;20490;-86
2021/10/20 10:34:26;;;;;;;14.30;13.60;;;25.60;81.50;;;;;;5050848;28;20444;-85
2021/10/20 10:36:54;;;;;;;13.97;13.27;;;25.70;79.50;;;;;;5050939;28;20825;-89
2021/10/20 10:39:22;;;;;;;14.70;14.10;;;25.80;80.50;;;;;;5050862;28;20432;-86
2021/10/20 10:41:49;;;;;;;14.93;14.23;;;25.80;79.00;;;;;;5051335;28;20519;-88
2021/10/20 10:44:19;;;;;;;14.80;14.10;;;25.50;79.70;;;;;;5057542;28;20460;-87
2021/10/20 10:47:05;;;;;;;14.07;13.47;;;25.10;80.80;;;;;;5050932;28;20467;-84
2021/10/20 10:49:35;;;;;;;13.80;13.30;;;24.70;81.70;;;;;;5050649;28;20466;-86
2021/10/20 10:52:16;;;;;;;13.93;13.23;;;24.80;81.50;;;;;;5050459;28;20483;-87
2021/10/20 10:55:04;;;;;;;14.73;14.13;;;25.30;80.50;;;;;;5050560;28;20510;-86
2021/10/20 10:57:39;;;;;;;14.23;13.63;;;24.90;79.80;;;;;;5052795;28;20448;-85
2021/10/20 11:00:26;;;;;;;14.93;14.23;;;24.60;81.90;;;;;;5050715;28;20452;-82
2021/10/20 11:02:55;;;;;;;14.70;13.90;;;25.30;80.70;;;;;;5050861;28;20451;-83
2021/10/20 11:05:24;;;;;;;17.57;15.97;;;26.00;79.20;;;;;;5052001;28;20494;-86
2021/10/20 11:07:53;;;;;;;14.30;13.40;;;26.10;78.10;;;;;;5054766;28;20964;-85
2021/10/20 11:10:20;;;;;;;14.00;13.50;;;25.50;79.30;;;;;;5054707;28;20454;-83
2021/10/20 11:12:48;;;;;;;15.30;14.70;;;25.40;80.30;;;;;;5054820;28;20492;-83
2021/10/20 11:15:17;;;;;;;16.50;15.33;;;26.10;79.20;;;;;;5056936;28;20462;-86
2021/10/20 11:17:44;;;;;;;13.90;13.33;;;26.60;77.80;;;;;;5056664;28;20867;-87
2021/10/20 11:20:13;;;;;;;13.90;13.30;;;26.20;77.50;;;;;;5054820;28;20464;-86
2021/10/20 11:22:43;;;;;;;13.97;13.37;;;26.00;79.50;;;;;;5054312;28;20440;-85
2021/10/20 11:25:12;;;;;;;12.97;12.57;;;26.20;78.40;;;;;;5054859;28;20447;-82
2021/10/20 11:27:39;;;;;;;14.20;13.70;;;26.60;77.40;;;;;;5054379;28;20487;-82
2021/10/20 11:30:07;;;;;;;13.80;13.30;;;27.40;74.50;;;;;;5032608;28;20476;-81
2021/10/20 11:32:36;;;;;;;13.00;12.50;;;27.50;74.40;;;;;;5034557;28;20477;-86
2021/10/20 11:35:04;;;;;;;14.10;13.50;;;28.00;72.50;;;;;;5034637;28;20511;-81
2021/10/20 11:37:31;;;;;;;13.43;12.93;;;27.90;72.90;;;;;;5034338;28;20524;-81
2021/10/20 11:40:01;;;;;;;14.13;13.53;;;27.70;72.10;;;;;;5034268;28;20900;-81
2021/10/20 11:42:28;;;;;;;13.73;13.23;;;27.70;72.70;;;;;;5034213;28;20467;-81
2021/10/20 11:44:55;;;;;;;13.77;12.87;;;28.20;72.10;;;;;;5034091;28;20449;-86
2021/10/20 11:47:22;;;;;;;14.23;13.53;;;28.60;70.20;;;;;;5034284;28;20455;-85
2021/10/20 11:49:52;;;;;;;14.80;14.10;;;28.30;70.40;;;;;;5034351;28;20536;-80
2021/10/20 11:52:21;;;;;;;12.43;12.03;;;28.00;71.10;;;;;;5034033;28;20492;-81
2021/10/20 11:54:48;;;;;;;13.40;12.80;;;28.70;70.10;;;;;;5034201;28;20449;-80
2021/10/20 11:57:17;;;;;;;13.83;13.33;;;29.50;69.60;;;;;;5034052;28;20468;-85
2021/10/20 11:59:44;;;;;;;13.57;12.77;;;30.40;66.50;;;;;;5034158;28;20465;-80
2021/10/20 12:02:12;;;;;;;14.60;13.70;;;30.50;63.80;;;;;;5033759;28;20449;-82
2021/10/20 12:04:40;;;;;;;14.40;13.70;;;30.80;63.60;;;;;;5031883;28;20546;-80
2021/10/20 12:07:10;;;;;;;14.50;13.90;;;30.60;63.90;;;;;;5034120;28;20445;-86
2021/10/20 12:09:41;;;;;;;14.00;13.50;;;31.10;62.00;;;;;;5033995;28;20449;-87
2021/10/20 12:12:09;;;;;;;15.13;14.27;;;29.10;65.30;;;;;;5033832;28;20563;-87
2021/10/20 12:14:38;;;;;;;14.30;13.40;;;27.70;68.90;;;;;;5034064;28;20449;-86
2021/10/20 12:17:07;;;;;;;13.30;12.70;;;26.90;72.30;;;;;;5033078;28;21066;-87
2021/10/20 12:19:36;;;;;;;13.90;13.30;;;27.20;72.80;;;;;;5033747;28;20445;-82
2021/10/20 12:22:05;;;;;;;14.47;13.67;;;27.40;72.20;;;;;;5032971;28;20459;-82
2021/10/20 12:24:39;;;;;;;14.47;13.97;;;28.20;70.80;;;;;;5032656;28;20449;-87
2021/10/20 12:27:07;;;;;;;14.17;13.37;;;29.60;68.50;;;;;;5033458;28;20504;-86
2021/10/20 12:29:40;;;;;;;14.97;14.27;;;30.80;65.50;;;;;;5033566;28;20456;-86
2021/10/20 12:32:17;;;;;;;14.23;13.43;;;31.50;64.00;;;;;;5033787;28;20477;-89
2021/10/20 12:34:55;;;;;;;14.10;13.60;;;31.60;60.90;;;;;;5033523;28;20933;-87